createdAt,value
2019-03-15T00:04:08.853Z,4.9
2019-03-15T00:09:37.400Z,4.9
2019-03-15T00:15:05.776Z,4.8
2019-03-15T00:20:33.342Z,4.8
2019-03-15T00:26:00.691Z,4.8
2019-03-15T00:31:28.167Z,4.8
2019-03-15T00:36:56.691Z,4.8
2019-03-15T00:42:24.086Z,4.8
2019-03-15T00:47:51.638Z,4.8
2019-03-15T00:53:19.073Z,4.8
2019-03-15T00:58:46.581Z,4.8
2019-03-15T01:04:15.061Z,4.8
2019-03-15T01:09:43.506Z,4.8
2019-03-15T01:15:10.930Z,4.7
2019-03-15T01:20:38.462Z,4.6
2019-03-15T01:26:06.835Z,4.6
2019-03-15T01:31:34.297Z,4.6
2019-03-15T01:37:02.208Z,4.6
2019-03-15T01:42:29.197Z,4.6
2019-03-15T01:47:56.813Z,4.6
2019-03-15T01:53:25.097Z,4.7
2019-03-15T01:58:52.536Z,4.7
2019-03-15T02:04:21.020Z,4.8
2019-03-15T02:09:48.543Z,4.8
2019-03-15T02:15:15.951Z,4.9
2019-03-15T02:20:43.413Z,4.9
2019-03-15T02:26:10.877Z,4.9
2019-03-15T02:31:39.380Z,5
2019-03-15T02:37:07.972Z,5
2019-03-15T02:42:35.317Z,5
2019-03-15T02:48:03.942Z,5
2019-03-15T02:53:31.346Z,5
2019-03-15T02:58:58.739Z,5
2019-03-15T03:04:26.220Z,5
2019-03-15T03:09:54.698Z,5
2019-03-15T03:15:23.158Z,5
2019-03-15T03:20:51.641Z,5
2019-03-15T03:26:19.058Z,4.9
2019-03-15T03:31:47.537Z,4.9
2019-03-15T03:37:15.131Z,4.8
2019-03-15T03:42:42.523Z,4.7
2019-03-15T03:48:10.974Z,4.6
2019-03-15T03:53:39.327Z,4.6
2019-03-15T03:59:07.833Z,4.5
2019-03-15T04:04:36.255Z,4.5
2019-03-15T04:10:05.625Z,4.4
2019-03-15T04:15:32.140Z,4.4
2019-03-15T04:21:00.537Z,4.4
2019-03-15T04:26:27.929Z,4.5
2019-03-15T04:31:55.347Z,4.6
2019-03-15T04:37:23.811Z,4.6
2019-03-15T04:42:52.367Z,4.7
2019-03-15T04:48:19.723Z,4.7
2019-03-15T04:53:47.337Z,4.7
2019-03-15T04:59:14.620Z,4.7
2019-03-15T05:04:42.072Z,4.7
2019-03-15T05:10:09.590Z,4.7
2019-03-15T05:15:36.984Z,4.7
2019-03-15T05:21:05.440Z,4.7
2019-03-15T05:26:32.871Z,4.7
2019-03-15T05:32:00.450Z,4.7
2019-03-15T05:37:28.810Z,4.7
2019-03-15T05:42:57.264Z,4.7
2019-03-15T05:48:24.714Z,4.8
2019-03-15T05:53:53.220Z,4.8
2019-03-15T06:15:44.020Z,4.8
2019-03-15T06:21:11.487Z,4.8
2019-03-15T06:26:39.006Z,4.9
2019-03-15T06:32:07.612Z,5
2019-03-15T06:37:34.894Z,5
2019-03-15T06:43:02.394Z,5.2
2019-03-15T06:48:30.840Z,5.3
2019-03-15T06:54:10.490Z,5.5
2019-03-15T06:59:25.834Z,5.5
2019-03-15T07:04:54.471Z,5.5
2019-03-15T07:10:22.873Z,5.6
2019-03-15T07:15:50.451Z,5.6
2019-03-15T07:21:18.915Z,5.6
2019-03-15T07:26:46.501Z,5.6
2019-03-15T07:32:13.942Z,5.6
2019-03-15T07:37:45.226Z,5.7
2019-03-15T07:43:10.983Z,5.8
2019-03-15T07:48:38.529Z,5.8
2019-03-15T07:54:06.075Z,5.9
2019-03-15T07:59:34.617Z,5.9
2019-03-15T08:05:02.138Z,6
2019-03-15T08:10:29.707Z,6
2019-03-15T08:15:58.271Z,6
2019-03-15T08:21:25.867Z,6.1
2019-03-15T08:26:54.341Z,6.1
2019-03-15T08:32:21.912Z,6.2
2019-03-15T08:37:49.531Z,6.3
2019-03-15T08:43:17.079Z,6.4
2019-03-15T08:48:44.721Z,6.4
2019-03-15T08:54:13.226Z,6.5
2019-03-15T08:59:52.712Z,6.5
2019-03-15T09:05:08.449Z,6.6
2019-03-15T09:10:37.002Z,6.6
2019-03-15T09:16:04.638Z,6.7
2019-03-15T09:21:32.229Z,6.7
2019-03-15T09:27:00.946Z,6.8
2019-03-15T09:32:28.607Z,6.8
2019-03-15T09:37:57.055Z,6.8
2019-03-15T09:43:24.654Z,6.7
2019-03-15T09:48:52.246Z,6.7
2019-03-15T09:54:19.840Z,6.7
2019-03-15T09:59:48.397Z,6.7
2019-03-15T10:05:16.009Z,6.6
2019-03-15T10:10:43.604Z,6.5
2019-03-15T10:16:12.239Z,6.5
2019-03-15T10:21:39.795Z,6.4
2019-03-15T10:27:07.363Z,6.3
2019-03-15T10:32:34.909Z,6.3
2019-03-15T10:38:03.549Z,6.3
2019-03-15T10:43:32.053Z,6.3
2019-03-15T10:49:00.609Z,6.2
2019-03-15T10:54:29.137Z,6.2
2019-03-15T10:59:56.703Z,6.1
2019-03-15T11:05:24.289Z,6.1
2019-03-15T11:10:52.772Z,6.1
2019-03-15T11:16:20.350Z,6.1
2019-03-15T11:21:49.077Z,6.1
2019-03-15T11:27:17.449Z,6.1
2019-03-15T11:32:45.990Z,6.2
2019-03-15T11:43:42.287Z,6.2
2019-03-15T11:49:10.675Z,6.1
2019-03-15T11:54:39.579Z,6.1
2019-03-15T12:00:07.840Z,6.1
2019-03-15T12:05:36.429Z,6.1
2019-03-15T12:11:03.906Z,6.2
2019-03-15T12:16:32.471Z,6.2
2019-03-15T12:22:05.950Z,6.3
2019-03-15T12:27:27.657Z,6.3
2019-03-15T12:32:56.983Z,6.4
2019-03-15T12:38:24.764Z,6.5
2019-03-15T12:43:53.424Z,6.6
2019-03-15T12:49:20.986Z,6.8
2019-03-15T12:54:48.735Z,6.9
2019-03-15T13:00:16.434Z,7.1
2019-03-15T13:05:44.938Z,7.3
2019-03-15T13:11:13.562Z,7.4
2019-03-15T13:16:41.232Z,7.4
2019-03-15T13:22:09.827Z,7.4
2019-03-15T13:27:37.540Z,7.5
2019-03-15T13:33:19.035Z,7.5
2019-03-15T13:38:33.888Z,7.5
2019-03-15T13:44:02.648Z,7.5
2019-03-15T13:49:30.366Z,7.6
2019-03-15T13:54:58.998Z,7.6
2019-03-15T14:00:26.593Z,7.6
2019-03-15T14:05:55.310Z,7.6
2019-03-15T14:11:22.945Z,7.6
2019-03-15T14:16:50.704Z,7.6
2019-03-15T14:22:19.359Z,7.6
2019-03-15T14:27:47.402Z,7.6
2019-03-15T14:33:15.796Z,7.6
2019-03-15T14:38:44.542Z,7.6
2019-03-15T14:44:13.174Z,7.6
2019-03-15T14:49:40.609Z,7.5
2019-03-15T14:55:09.280Z,7.5
2019-03-15T15:00:37.943Z,7.5
2019-03-15T15:06:06.573Z,7.5
2019-03-15T15:11:34.253Z,7.5
2019-03-15T15:17:04.638Z,7.5
2019-03-15T15:22:29.624Z,7.4
2019-03-15T15:28:05.097Z,7.4
2019-03-15T15:33:25.873Z,7.4
2019-03-15T15:38:54.578Z,7.3
2019-03-15T15:44:22.157Z,7.3
2019-03-15T15:49:49.903Z,7.3
2019-03-15T16:00:47.205Z,7.3
2019-03-15T16:06:15.793Z,7.2
2019-03-15T16:11:43.600Z,7.2
2019-03-15T16:17:12.105Z,7.1
2019-03-15T16:22:40.733Z,7.1
2019-03-15T16:28:08.238Z,7
2019-03-15T16:33:35.887Z,6.9
2019-03-15T16:39:04.507Z,6.8
2019-03-15T16:44:33.094Z,6.8
2019-03-15T16:50:01.794Z,6.7
2019-03-15T16:55:29.399Z,6.7
2019-03-15T17:00:57.902Z,6.6
2019-03-15T17:06:25.470Z,6.6
2019-03-15T17:11:54.067Z,6.6
2019-03-15T17:17:21.713Z,6.5
2019-03-15T17:22:49.225Z,6.4
2019-03-15T17:28:17.821Z,6.3
2019-03-15T17:33:45.347Z,6
2019-03-15T17:39:13.865Z,5.6
2019-03-15T17:44:42.387Z,5.3
2019-03-15T17:50:09.870Z,5.1
2019-03-15T17:55:37.341Z,5
2019-03-15T18:01:04.809Z,4.9
2019-03-15T18:06:32.505Z,4.8
2019-03-15T18:12:00.708Z,4.8
2019-03-15T18:17:28.181Z,4.8
2019-03-15T18:22:55.662Z,4.9
2019-03-15T18:28:24.110Z,5
2019-03-15T18:33:52.627Z,5.1
2019-03-15T18:39:20.281Z,5.2
2019-03-15T18:44:48.611Z,5.3
2019-03-15T18:50:16.090Z,5.3
2019-03-15T18:55:43.614Z,5.2
2019-03-15T19:01:11.148Z,5.1
2019-03-15T19:06:39.480Z,5.1
2019-03-15T19:12:06.950Z,5
2019-03-15T19:17:35.411Z,5
2019-03-15T19:23:02.938Z,5
2019-03-15T19:28:30.438Z,5.1
2019-03-15T19:33:58.865Z,5.1
2019-03-15T19:39:27.588Z,5.1
2019-03-15T19:44:54.818Z,5.1
2019-03-15T19:50:22.267Z,5.1
2019-03-15T19:55:49.974Z,5.1
2019-03-15T20:01:17.256Z,5.1
2019-03-15T20:06:45.769Z,5.1
2019-03-15T20:12:13.153Z,5
2019-03-15T20:17:41.697Z,5
2019-03-15T20:23:10.899Z,5
2019-03-15T20:28:37.598Z,5
2019-03-15T20:34:06.085Z,5
2019-03-15T20:39:33.620Z,5
2019-03-15T20:45:01.877Z,5
2019-03-15T20:50:29.465Z,5
2019-03-15T20:55:56.963Z,4.9
2019-03-15T21:01:25.343Z,5
2019-03-15T21:06:53.834Z,5
2019-03-15T21:12:22.285Z,5
2019-03-15T21:17:50.768Z,5.1
2019-03-15T21:23:19.211Z,5.1
2019-03-15T21:28:46.694Z,5.1
2019-03-15T21:34:15.154Z,5
2019-03-15T21:39:42.647Z,5
2019-03-15T21:45:10.421Z,4.9
2019-03-15T21:50:38.631Z,4.8
2019-03-15T22:01:35.515Z,4.6
2019-03-15T22:07:02.969Z,4.5
2019-03-15T22:12:31.344Z,4.4
2019-03-15T22:17:59.713Z,4.5
2019-03-15T22:23:28.172Z,4.5
2019-03-15T22:28:56.602Z,4.5
2019-03-15T22:34:25.039Z,4.5
2019-03-15T22:39:52.457Z,4.5
2019-03-15T22:45:19.999Z,4.6
2019-03-15T22:50:47.796Z,4.7
2019-03-15T22:56:15.814Z,4.7
2019-03-15T23:01:43.522Z,4.8
2019-03-15T23:07:10.791Z,4.9
2019-03-15T23:12:38.273Z,5
2019-03-15T23:18:06.760Z,5
2019-03-15T23:23:35.203Z,5
2019-03-15T23:29:02.731Z,5
2019-03-15T23:34:30.289Z,5
2019-03-15T23:39:57.648Z,5
2019-03-15T23:45:25.069Z,5
2019-03-15T23:50:52.537Z,5
2019-03-15T23:56:21.008Z,4.9
